createdAt,value
2023-04-15T00:01:06.585Z,74.65
2023-04-15T00:03:34.682Z,74.70
2023-04-15T00:06:02.381Z,74.04
2023-04-15T00:08:30.094Z,74.42
2023-04-15T00:10:56.948Z,74.73
2023-04-15T00:13:23.789Z,75.09
2023-04-15T00:15:50.739Z,74.73
2023-04-15T00:18:18.224Z,74.72
2023-04-15T00:20:45.001Z,74.82
2023-04-15T00:23:11.882Z,75.22
2023-04-15T00:25:38.703Z,75.13
2023-04-15T00:28:05.574Z,74.56
2023-04-15T00:30:32.730Z,75.24
2023-04-15T00:32:59.828Z,75.66
2023-04-15T00:35:26.893Z,75.60
2023-04-15T00:37:53.984Z,76.26
2023-04-15T00:40:24.764Z,76.73
2023-04-15T00:42:52.585Z,76.67
2023-04-15T00:45:19.684Z,76.74
2023-04-15T00:47:46.818Z,77.25
2023-04-15T00:50:13.774Z,77.45
2023-04-15T00:52:41.170Z,77.73
2023-04-15T00:55:11.360Z,77.85
2023-04-15T00:57:40.565Z,78.00
2023-04-15T01:00:08.950Z,77.82
2023-04-15T01:02:37.097Z,78.35
2023-04-15T01:05:05.171Z,78.51
2023-04-15T01:07:32.387Z,78.53
2023-04-15T01:09:59.680Z,78.74
2023-04-15T01:12:29.372Z,80.07
2023-04-15T01:14:57.144Z,81.00
2023-04-15T01:17:25.554Z,80.60
2023-04-15T01:19:52.937Z,81.26
2023-04-15T01:22:19.770Z,81.72
2023-04-15T01:25:14.619Z,82.43
2023-04-15T01:27:42.513Z,82.76
2023-04-15T01:30:10.605Z,82.35
2023-04-15T01:32:38.137Z,82.30
2023-04-15T01:35:05.390Z,83.24
2023-04-15T01:37:33.018Z,83.03
2023-04-15T01:39:59.762Z,82.67
2023-04-15T01:42:27.920Z,81.61
2023-04-15T01:44:55.147Z,82.19
2023-04-15T01:47:22.449Z,82.45
2023-04-15T01:49:49.382Z,82.02
2023-04-15T01:52:16.254Z,81.42
2023-04-15T01:54:43.250Z,81.03
2023-04-15T01:57:10.198Z,81.35
2023-04-15T01:59:37.317Z,81.37
2023-04-15T02:02:04.692Z,81.20
2023-04-15T02:04:31.840Z,80.90
2023-04-15T02:06:58.634Z,81.18
2023-04-15T02:09:25.595Z,81.07
2023-04-15T02:11:54.286Z,81.63
2023-04-15T02:14:21.384Z,81.65
2023-04-15T02:16:48.474Z,81.55
2023-04-15T02:19:15.478Z,81.86
2023-04-15T02:21:42.315Z,81.98
2023-04-15T02:24:09.185Z,82.02
2023-04-15T02:26:36.200Z,82.28
2023-04-15T02:29:03.966Z,82.28
2023-04-15T02:31:34.042Z,82.38
2023-04-15T02:34:03.288Z,82.74
2023-04-15T02:36:31.641Z,82.35
2023-04-15T02:38:58.962Z,83.41
2023-04-15T02:41:28.041Z,82.72
2023-04-15T02:43:55.346Z,82.63
2023-04-15T02:46:22.840Z,82.85
2023-04-15T02:48:50.999Z,83.48
2023-04-15T02:51:21.498Z,83.95
2023-04-15T02:53:49.825Z,84.13
2023-04-15T02:56:17.996Z,85.02
2023-04-15T02:58:45.851Z,84.36
2023-04-15T03:01:14.525Z,84.04
2023-04-15T03:03:41.510Z,83.86
2023-04-15T03:06:09.032Z,83.54
2023-04-15T03:08:36.441Z,84.11
2023-04-15T03:11:03.914Z,84.34
2023-04-15T03:13:31.094Z,84.65
2023-04-15T03:15:57.896Z,84.99
2023-04-15T03:18:24.720Z,84.46
2023-04-15T03:20:51.879Z,85.34
2023-04-15T03:23:18.697Z,85.99
2023-04-15T03:25:46.149Z,85.47
2023-04-15T03:28:12.900Z,85.37
2023-04-15T03:30:39.658Z,85.15
2023-04-15T03:33:06.972Z,85.47
2023-04-15T03:35:34.458Z,85.70
2023-04-15T03:38:02.428Z,85.53
2023-04-15T03:40:31.073Z,85.78
2023-04-15T03:42:57.851Z,86.26
2023-04-15T03:45:25.468Z,86.77
2023-04-15T03:47:52.548Z,87.62
2023-04-15T03:50:19.548Z,88.10
2023-04-15T03:52:46.415Z,87.26
2023-04-15T03:55:13.324Z,86.58
2023-04-15T03:57:40.444Z,86.46
2023-04-15T04:00:12.062Z,86.13
2023-04-15T04:02:39.265Z,86.07
2023-04-15T04:05:06.555Z,85.94
2023-04-15T04:07:33.388Z,86.96
2023-04-15T04:10:00.165Z,87.09
2023-04-15T04:12:26.892Z,87.77
2023-04-15T04:14:53.677Z,87.80
2023-04-15T04:17:20.574Z,89.01
2023-04-15T04:19:47.386Z,89.17
2023-04-15T04:22:14.204Z,89.40
2023-04-15T04:24:40.932Z,89.36
2023-04-15T04:27:07.794Z,89.00
2023-04-15T04:29:34.605Z,89.05
2023-04-15T04:32:01.381Z,89.06
2023-04-15T04:34:28.176Z,89.15
2023-04-15T04:36:55.078Z,89.54
2023-04-15T04:39:21.855Z,89.13
2023-04-15T04:41:48.554Z,90.24
2023-04-15T04:44:15.877Z,90.55
2023-04-15T04:46:42.618Z,89.90
2023-04-15T04:49:09.504Z,90.63
2023-04-15T04:51:36.756Z,91.07
2023-04-15T04:54:04.315Z,89.83
2023-04-15T04:56:31.119Z,89.41
2023-04-15T04:58:57.938Z,89.55
2023-04-15T05:01:26.542Z,89.39
2023-04-15T05:03:53.706Z,89.18
2023-04-15T05:06:20.730Z,89.73
2023-04-15T05:08:48.256Z,90.09
2023-04-15T05:11:15.271Z,90.50
2023-04-15T05:13:42.165Z,91.01
2023-04-15T05:16:09.444Z,91.33
2023-04-15T05:18:36.819Z,91.30
2023-04-15T05:21:03.845Z,91.28
2023-04-15T05:23:30.962Z,91.03
2023-04-15T05:25:57.736Z,90.04
2023-04-15T05:28:24.620Z,90.18
2023-04-15T05:30:51.768Z,90.88
2023-04-15T05:33:19.033Z,90.75
2023-04-15T05:35:46.280Z,91.61
2023-04-15T05:38:13.146Z,91.94
2023-04-15T05:40:39.911Z,91.80
2023-04-15T05:43:06.731Z,91.53
2023-04-15T05:45:33.572Z,91.28
2023-04-15T05:48:00.434Z,91.69
2023-04-15T05:50:27.373Z,91.60
2023-04-15T05:52:55.958Z,91.05
2023-04-15T05:55:22.755Z,91.08
2023-04-15T05:57:49.748Z,90.65
2023-04-15T06:00:16.677Z,90.64
2023-04-15T06:02:43.757Z,90.93
2023-04-15T06:05:11.751Z,91.13
2023-04-15T06:07:39.148Z,91.25
2023-04-15T06:10:07.677Z,90.87
2023-04-15T06:12:34.654Z,90.76
2023-04-15T06:15:01.622Z,91.83
2023-04-15T06:17:28.537Z,90.79
2023-04-15T06:19:56.002Z,90.33
2023-04-15T06:22:23.981Z,90.49
2023-04-15T06:24:51.480Z,90.15
2023-04-15T06:27:18.806Z,89.73
2023-04-15T06:29:45.777Z,89.48
2023-04-15T06:32:12.996Z,88.86
2023-04-15T06:34:39.888Z,88.27
2023-04-15T06:37:07.014Z,88.58
2023-04-15T06:39:33.802Z,88.57
2023-04-15T06:42:01.358Z,88.48
2023-04-15T06:44:29.078Z,88.07
2023-04-15T06:46:55.818Z,87.11
2023-04-15T06:49:22.819Z,86.36
2023-04-15T06:51:49.711Z,85.58
2023-04-15T06:54:16.486Z,84.60
2023-04-15T06:56:43.322Z,83.66
2023-04-15T06:59:11.323Z,83.27
2023-04-15T07:01:38.085Z,81.91
2023-04-15T07:04:05.295Z,81.22
2023-04-15T07:06:32.694Z,80.21
2023-04-15T07:08:59.799Z,78.84
2023-04-15T07:11:27.358Z,78.27
2023-04-15T07:13:54.156Z,78.35
2023-04-15T07:16:21.287Z,78.38
2023-04-15T07:18:48.125Z,77.76
2023-04-15T07:21:14.935Z,77.05
2023-04-15T07:23:42.683Z,77.12
2023-04-15T07:26:10.944Z,75.87
2023-04-15T07:28:37.783Z,75.65
2023-04-15T07:31:04.786Z,73.73
2023-04-15T07:33:31.589Z,72.11
2023-04-15T07:35:58.317Z,70.83
2023-04-15T07:38:25.973Z,69.94
2023-04-15T07:40:53.160Z,69.54
2023-04-15T07:43:21.253Z,68.00
2023-04-15T07:45:48.945Z,66.41
2023-04-15T07:48:16.054Z,65.74
2023-04-15T07:50:42.925Z,64.33
2023-04-15T07:53:09.767Z,63.90
2023-04-15T07:55:36.530Z,63.02
2023-04-15T07:58:03.428Z,62.76
2023-04-15T08:00:30.493Z,61.63
2023-04-15T08:02:59.268Z,60.69
2023-04-15T08:05:26.145Z,59.23
2023-04-15T08:07:53.013Z,58.16
2023-04-15T08:10:20.559Z,56.23
2023-04-15T08:12:49.522Z,55.93
2023-04-15T08:15:16.788Z,55.33
2023-04-15T08:17:43.665Z,54.50
2023-04-15T08:20:11.451Z,53.58
2023-04-15T08:22:38.355Z,54.76
2023-04-15T08:25:05.722Z,54.04
2023-04-15T08:27:32.805Z,54.60
2023-04-15T08:29:59.639Z,54.74
2023-04-15T08:32:27.158Z,54.47
2023-04-15T08:34:54.106Z,54.79
2023-04-15T08:37:21.210Z,52.82
2023-04-15T08:39:48.597Z,53.42
2023-04-15T08:42:27.712Z,51.83
2023-04-15T08:44:56.178Z,52.39
2023-04-15T08:47:28.464Z,53.04
2023-04-15T08:49:58.169Z,52.33
2023-04-15T08:52:31.642Z,52.45
2023-04-15T08:55:00.346Z,53.22
2023-04-15T08:57:32.154Z,52.01
2023-04-15T08:59:59.086Z,50.37
2023-04-15T09:02:27.517Z,51.46
2023-04-15T09:04:54.853Z,49.61
2023-04-15T09:07:21.737Z,50.84
2023-04-15T09:09:48.952Z,50.71
2023-04-15T09:12:17.104Z,50.09
2023-04-15T09:14:47.158Z,49.50
2023-04-15T09:17:18.472Z,49.80
2023-04-15T09:19:45.276Z,47.80
2023-04-15T09:22:13.091Z,48.92
2023-04-15T09:24:42.167Z,48.19
2023-04-15T09:27:09.512Z,48.73
2023-04-15T09:29:37.073Z,50.23
2023-04-15T09:32:12.835Z,48.83
2023-04-15T09:34:39.730Z,47.90
2023-04-15T09:37:07.845Z,49.18
2023-04-15T09:39:52.668Z,46.85
2023-04-15T09:42:26.969Z,44.59
2023-04-15T09:44:54.112Z,46.41
2023-04-15T09:47:30.113Z,42.18
2023-04-15T09:49:59.726Z,42.31
2023-04-15T09:52:29.065Z,42.31
2023-04-15T09:54:58.885Z,43.97
2023-04-15T09:57:34.421Z,44.43
2023-04-15T10:00:01.306Z,43.06
2023-04-15T10:02:30.486Z,44.86
2023-04-15T10:04:57.806Z,44.45
2023-04-15T10:07:26.378Z,44.08
2023-04-15T10:09:54.105Z,45.21
2023-04-15T10:12:22.772Z,46.61
2023-04-15T10:14:59.256Z,46.65
2023-04-15T10:17:33.682Z,46.53
2023-04-15T10:20:04.632Z,46.32
2023-04-15T10:22:33.075Z,46.33
2023-04-15T10:25:01.146Z,46.80
2023-04-15T10:27:28.996Z,48.00
2023-04-15T10:29:57.452Z,46.55
2023-04-15T10:32:26.304Z,46.37
2023-04-15T10:34:55.515Z,47.69
2023-04-15T10:37:33.938Z,45.36
2023-04-15T10:40:00.950Z,44.92
2023-04-15T10:42:35.416Z,43.46
2023-04-15T10:45:02.531Z,43.15
2023-04-15T10:47:32.654Z,44.56
2023-04-15T10:50:02.321Z,44.34
2023-04-15T10:52:29.711Z,42.41
2023-04-15T10:55:14.301Z,43.16
2023-04-15T10:57:43.116Z,43.40
2023-04-15T11:00:17.452Z,43.23
2023-04-15T11:02:56.513Z,44.24
2023-04-15T11:05:53.800Z,43.39
2023-04-15T11:08:54.068Z,41.66
2023-04-15T11:11:21.204Z,42.14
2023-04-15T11:13:51.365Z,42.62
2023-04-15T11:16:18.651Z,42.48
2023-04-15T11:18:55.872Z,41.91
2023-04-15T11:21:26.555Z,41.56
2023-04-15T11:23:53.430Z,41.87
2023-04-15T11:26:26.949Z,41.67
2023-04-15T11:28:54.559Z,41.90
2023-04-15T11:31:23.796Z,42.10
2023-04-15T11:34:01.439Z,42.35
2023-04-15T11:36:31.753Z,41.06
2023-04-15T11:39:00.244Z,42.02
2023-04-15T11:41:27.254Z,40.99
2023-04-15T11:43:54.091Z,38.98
2023-04-15T11:46:22.867Z,38.14
2023-04-15T11:48:49.922Z,38.92
2023-04-15T11:51:16.889Z,37.58
2023-04-15T11:53:52.557Z,35.21
2023-04-15T11:56:23.066Z,33.54
2023-04-15T11:58:58.646Z,33.00
2023-04-15T12:01:39.252Z,32.18
2023-04-15T12:04:32.704Z,32.28
2023-04-15T12:07:06.578Z,32.16
2023-04-15T12:09:38.625Z,32.38
2023-04-15T12:12:05.534Z,32.90
2023-04-15T12:14:34.788Z,34.13
2023-04-15T12:17:06.654Z,35.25
2023-04-15T12:19:42.964Z,34.29
2023-04-15T12:22:12.998Z,34.50
2023-04-15T12:24:44.078Z,34.47
2023-04-15T12:27:16.337Z,33.68
2023-04-15T12:29:43.869Z,32.27
2023-04-15T12:32:16.271Z,30.81
2023-04-15T12:34:54.523Z,30.08
2023-04-15T12:37:21.664Z,29.49
2023-04-15T12:39:50.122Z,29.86
2023-04-15T12:42:18.377Z,30.22
2023-04-15T12:44:45.907Z,30.94
2023-04-15T12:47:13.519Z,30.74
2023-04-15T12:49:41.256Z,29.98
2023-04-15T12:52:08.998Z,31.74
2023-04-15T12:54:36.361Z,32.66
2023-04-15T12:57:06.822Z,32.32
2023-04-15T12:59:34.726Z,32.43
2023-04-15T13:02:03.098Z,32.09
2023-04-15T13:04:32.899Z,32.74
2023-04-15T13:07:02.001Z,32.77
2023-04-15T13:09:28.841Z,32.27
2023-04-15T13:11:57.399Z,31.70
2023-04-15T13:14:24.244Z,31.57
2023-04-15T13:16:51.192Z,31.57
2023-04-15T13:19:18.039Z,34.79
2023-04-15T13:21:44.883Z,36.28
2023-04-15T13:24:11.692Z,36.59
2023-04-15T13:26:38.542Z,37.10
2023-04-15T13:29:05.447Z,37.29
2023-04-15T13:31:32.555Z,37.64
2023-04-15T13:33:59.664Z,37.20
2023-04-15T13:36:27.270Z,37.23
2023-04-15T13:38:54.427Z,36.34
2023-04-15T13:41:21.238Z,35.03
2023-04-15T13:43:48.089Z,34.57
2023-04-15T13:46:15.119Z,34.81
2023-04-15T13:48:42.304Z,35.12
2023-04-15T13:51:09.273Z,35.47
2023-04-15T13:53:38.882Z,35.66
2023-04-15T13:56:09.480Z,35.86
2023-04-15T13:58:37.827Z,36.05
2023-04-15T14:01:06.742Z,36.58
2023-04-15T14:03:36.229Z,36.33
2023-04-15T14:06:04.149Z,36.61
2023-04-15T14:08:31.607Z,37.33
2023-04-15T14:10:58.716Z,37.52
2023-04-15T14:13:25.655Z,37.96
2023-04-15T14:15:52.824Z,38.76
2023-04-15T14:18:19.796Z,39.10
2023-04-15T14:20:48.362Z,39.23
2023-04-15T14:23:15.237Z,39.56
2023-04-15T14:25:42.109Z,40.17
2023-04-15T14:28:09.055Z,40.52
2023-04-15T14:30:36.051Z,40.70
2023-04-15T14:33:03.823Z,40.88
2023-04-15T14:35:31.493Z,41.59
2023-04-15T14:37:58.450Z,41.74
2023-04-15T14:40:25.300Z,41.86
2023-04-15T14:42:52.195Z,42.05
2023-04-15T14:45:20.910Z,41.60
2023-04-15T14:47:48.532Z,41.59
2023-04-15T14:50:15.495Z,41.63
2023-04-15T14:52:42.310Z,41.65
2023-04-15T14:55:11.085Z,41.37
2023-04-15T14:57:42.082Z,41.10
2023-04-15T15:00:13.767Z,40.90
2023-04-15T15:02:42.353Z,41.10
2023-04-15T15:05:11.429Z,40.27
2023-04-15T15:07:40.790Z,40.41
2023-04-15T15:10:08.176Z,40.00
2023-04-15T15:12:35.350Z,40.62
2023-04-15T15:15:12.372Z,40.27
2023-04-15T15:17:46.796Z,40.33
2023-04-15T15:20:13.768Z,40.23
2023-04-15T15:22:40.532Z,40.16
2023-04-15T15:25:07.495Z,40.01
2023-04-15T15:27:35.094Z,39.82
2023-04-15T15:30:04.371Z,39.48
2023-04-15T15:32:31.173Z,39.80
2023-04-15T15:34:57.956Z,40.01
2023-04-15T15:37:24.754Z,40.64
2023-04-15T15:39:53.370Z,40.46
2023-04-15T15:42:20.204Z,40.27
2023-04-15T15:44:49.120Z,40.54
2023-04-15T15:47:21.660Z,40.48
2023-04-15T15:49:48.599Z,40.21
2023-04-15T15:52:15.716Z,40.54
2023-04-15T15:54:43.403Z,40.57
2023-04-15T15:57:10.863Z,41.23
2023-04-15T15:59:43.394Z,41.93
2023-04-15T16:02:12.622Z,41.97
2023-04-15T16:04:40.644Z,42.98
2023-04-15T16:07:07.756Z,43.27
2023-04-15T16:09:34.702Z,44.07
2023-04-15T16:12:01.969Z,44.99
2023-04-15T16:14:28.826Z,45.50
2023-04-15T16:16:56.113Z,47.46
2023-04-15T16:19:23.106Z,49.63
2023-04-15T16:21:50.462Z,51.41
2023-04-15T16:24:17.440Z,52.91
2023-04-15T16:26:44.268Z,54.04
2023-04-15T16:29:11.131Z,54.56
2023-04-15T16:31:39.912Z,56.25
2023-04-15T16:34:06.920Z,56.65
2023-04-15T16:36:36.766Z,59.03
2023-04-15T16:39:04.093Z,60.92
2023-04-15T16:41:33.193Z,64.60
2023-04-15T16:44:01.898Z,66.45
2023-04-15T16:46:29.623Z,69.84
2023-04-15T16:48:56.509Z,71.40
2023-04-15T16:51:23.391Z,77.54
2023-04-15T16:53:50.412Z,79.02
2023-04-15T16:56:17.232Z,81.37
2023-04-15T16:58:46.784Z,79.45
2023-04-15T17:01:13.785Z,79.40
2023-04-15T17:03:41.605Z,81.68
2023-04-15T17:06:08.674Z,83.18
2023-04-15T17:08:35.491Z,85.15
2023-04-15T17:11:02.280Z,87.34
2023-04-15T17:13:29.131Z,89.66
2023-04-15T17:15:56.040Z,89.20
2023-04-15T17:18:23.535Z,91.51
2023-04-15T17:20:50.415Z,95.78
2023-04-15T17:23:17.701Z,96.55
2023-04-15T17:25:44.627Z,96.52
2023-04-15T17:28:11.467Z,95.73
2023-04-15T17:30:38.342Z,100.00
2023-04-15T17:33:56.087Z,100.00
2023-04-15T17:35:53.552Z,100.00
2023-04-15T17:38:20.411Z,100.00
2023-04-15T17:40:47.142Z,100.00
2023-04-15T17:43:13.894Z,100.00
2023-04-15T17:45:40.719Z,100.00
2023-04-15T17:48:07.711Z,100.00
2023-04-15T17:50:34.518Z,100.00
2023-04-15T17:53:01.414Z,100.00
2023-04-15T17:55:28.272Z,100.00
2023-04-15T17:57:55.220Z,100.00
2023-04-15T18:00:22.084Z,100.00
2023-04-15T18:02:51.533Z,100.00
2023-04-15T18:05:21.196Z,100.00
2023-04-15T18:07:48.910Z,100.00
2023-04-15T18:10:16.044Z,100.00
2023-04-15T18:12:42.934Z,100.00
2023-04-15T18:15:10.911Z,100.00
2023-04-15T18:17:37.757Z,100.00
2023-04-15T18:20:05.157Z,100.00
2023-04-15T18:22:32.485Z,100.00
2023-04-15T18:25:03.915Z,100.00
2023-04-15T18:27:34.675Z,100.00
2023-04-15T18:30:01.616Z,100.00
2023-04-15T18:32:31.929Z,100.00
2023-04-15T18:34:58.951Z,100.00
2023-04-15T18:37:27.663Z,100.00
2023-04-15T18:39:54.918Z,100.00
2023-04-15T18:42:22.309Z,100.00
2023-04-15T18:44:49.826Z,100.00
2023-04-15T18:47:17.334Z,100.00
2023-04-15T18:49:44.335Z,100.00
2023-04-15T18:52:11.973Z,100.00
2023-04-15T18:54:38.724Z,100.00
2023-04-15T18:57:06.680Z,100.00
2023-04-15T18:59:34.908Z,100.00
2023-04-15T19:02:06.210Z,100.00
2023-04-15T19:04:33.484Z,100.00
2023-04-15T19:07:01.570Z,100.00
2023-04-15T19:09:29.310Z,100.00
2023-04-15T19:11:56.855Z,100.00
2023-04-15T19:14:23.884Z,100.00
2023-04-15T19:16:50.811Z,100.00
2023-04-15T19:19:17.772Z,100.00
2023-04-15T19:21:47.558Z,100.00
2023-04-15T19:24:14.480Z,100.00
2023-04-15T19:26:41.246Z,100.00
2023-04-15T19:29:08.057Z,100.00
2023-04-15T19:31:34.910Z,100.00
2023-04-15T19:34:01.752Z,100.00
2023-04-15T19:36:28.550Z,100.00
2023-04-15T19:38:55.786Z,100.00
2023-04-15T19:41:22.833Z,100.00
2023-04-15T19:43:49.606Z,100.00
2023-04-15T19:46:16.522Z,100.00
2023-04-15T19:48:43.482Z,100.00
2023-04-15T19:51:10.339Z,100.00
2023-04-15T19:53:37.302Z,100.00
2023-04-15T19:56:04.300Z,100.00
2023-04-15T19:58:32.370Z,100.00
2023-04-15T20:01:01.245Z,100.00
2023-04-15T20:03:28.187Z,100.00
2023-04-15T20:05:55.240Z,100.00
2023-04-15T20:08:21.979Z,100.00
2023-04-15T20:10:48.817Z,100.00
2023-04-15T20:13:15.584Z,100.00
2023-04-15T20:15:42.445Z,100.00
2023-04-15T20:18:09.233Z,100.00
2023-04-15T20:20:39.353Z,100.00
2023-04-15T20:23:06.619Z,100.00
2023-04-15T20:25:33.531Z,100.00
2023-04-15T20:28:01.179Z,100.00
2023-04-15T20:30:29.200Z,100.00
2023-04-15T20:32:56.270Z,100.00
2023-04-15T20:35:24.952Z,100.00
2023-04-15T20:37:51.971Z,100.00
2023-04-15T20:40:18.945Z,100.00
2023-04-15T20:42:45.973Z,100.00
2023-04-15T20:45:13.912Z,100.00
2023-04-15T20:47:41.739Z,100.00
2023-04-15T20:50:09.632Z,100.00
2023-04-15T20:52:36.573Z,100.00
2023-04-15T20:55:03.654Z,100.00
2023-04-15T20:57:30.489Z,100.00
2023-04-15T20:59:57.300Z,100.00
2023-04-15T21:02:24.712Z,100.00
2023-04-15T21:04:51.683Z,100.00
2023-04-15T21:07:18.509Z,100.00
2023-04-15T21:09:46.792Z,100.00
2023-04-15T21:12:13.580Z,100.00
2023-04-15T21:14:40.493Z,100.00
2023-04-15T21:17:10.560Z,100.00
2023-04-15T21:19:38.428Z,100.00
2023-04-15T21:22:05.298Z,100.00
2023-04-15T21:24:32.182Z,100.00
2023-04-15T21:26:59.005Z,100.00
2023-04-15T21:29:26.118Z,100.00
2023-04-15T21:31:52.990Z,100.00
2023-04-15T21:34:19.978Z,100.00
2023-04-15T21:36:46.883Z,100.00
2023-04-15T21:39:14.740Z,100.00
2023-04-15T21:41:42.172Z,100.00
2023-04-15T21:44:08.994Z,100.00
2023-04-15T21:46:36.105Z,100.00
2023-04-15T21:49:03.691Z,100.00
2023-04-15T21:51:31.397Z,100.00
2023-04-15T21:53:58.949Z,100.00
2023-04-15T21:56:26.491Z,100.00
2023-04-15T21:58:56.921Z,100.00
2023-04-15T22:01:26.496Z,100.00
2023-04-15T22:03:53.828Z,100.00
2023-04-15T22:06:21.423Z,100.00
2023-04-15T22:09:11.358Z,100.00
2023-04-15T22:11:37.189Z,100.00
2023-04-15T22:14:05.800Z,100.00
2023-04-15T22:16:32.578Z,100.00
2023-04-15T22:18:59.433Z,100.00
2023-04-15T22:21:26.785Z,100.00
2023-04-15T22:24:39.177Z,100.00
2023-04-15T22:26:40.407Z,100.00
2023-04-15T22:29:07.458Z,100.00
2023-04-15T22:31:34.469Z,100.00
2023-04-15T22:34:01.226Z,100.00
2023-04-15T22:36:31.018Z,100.00
2023-04-15T22:38:58.086Z,100.00
2023-04-15T22:41:24.959Z,100.00
2023-04-15T22:43:51.947Z,100.00
2023-04-15T22:46:18.814Z,100.00
2023-04-15T22:48:45.902Z,100.00
2023-04-15T22:51:12.665Z,100.00
2023-04-15T22:53:39.450Z,100.00
2023-04-15T22:56:06.608Z,100.00
2023-04-15T22:58:33.359Z,100.00
2023-04-15T23:01:00.190Z,100.00
2023-04-15T23:03:29.717Z,100.00
2023-04-15T23:06:00.222Z,100.00
2023-04-15T23:08:27.225Z,100.00
2023-04-15T23:10:54.287Z,100.00
2023-04-15T23:13:21.205Z,100.00
2023-04-15T23:15:47.944Z,100.00
2023-04-15T23:18:14.854Z,100.00
2023-04-15T23:20:41.844Z,100.00
2023-04-15T23:23:08.587Z,100.00
2023-04-15T23:25:35.370Z,100.00
2023-04-15T23:28:02.234Z,100.00
2023-04-15T23:30:30.035Z,100.00
2023-04-15T23:32:58.093Z,100.00
2023-04-15T23:35:27.135Z,100.00
2023-04-15T23:37:54.443Z,100.00
2023-04-15T23:40:21.300Z,100.00
2023-04-15T23:42:48.359Z,100.00
2023-04-15T23:45:15.174Z,100.00
2023-04-15T23:47:42.137Z,100.00
2023-04-15T23:50:09.812Z,100.00
2023-04-15T23:52:38.121Z,100.00
2023-04-15T23:55:05.585Z,100.00
2023-04-15T23:57:32.303Z,100.00
